createdAt,value
2022-07-27T00:00:52.373Z,98360.41
2022-07-27T00:03:19.216Z,98356.91
2022-07-27T00:05:46.223Z,98387.59
2022-07-27T00:08:13.031Z,98398.47
2022-07-27T00:10:39.712Z,98356.00
2022-07-27T00:13:07.052Z,98347.03
2022-07-27T00:15:34.702Z,98340.25
2022-07-27T00:18:01.600Z,98385.06
2022-07-27T00:20:29.420Z,98370.38
2022-07-27T00:22:56.777Z,98339.84
2022-07-27T00:25:24.358Z,98404.81
2022-07-27T00:27:51.077Z,98341.94
2022-07-27T00:30:17.719Z,98359.69
2022-07-27T00:32:44.508Z,98380.00
2022-07-27T00:35:12.585Z,98399.94
2022-07-27T00:37:39.606Z,98293.00
2022-07-27T00:40:07.083Z,98351.03
2022-07-27T00:42:34.236Z,98356.59
2022-07-27T00:45:02.972Z,98420.47
2022-07-27T00:47:29.892Z,98342.66
2022-07-27T00:49:58.248Z,98357.50
2022-07-27T00:52:25.412Z,98379.84
2022-07-27T00:54:52.610Z,98353.06
2022-07-27T00:57:19.657Z,98352.16
2022-07-27T00:59:46.280Z,98382.50
2022-07-27T01:02:17.186Z,98350.91
2022-07-27T01:04:47.350Z,98419.19
2022-07-27T01:07:15.201Z,98385.19
2022-07-27T01:09:42.574Z,98384.91
2022-07-27T01:12:14.850Z,98368.69
2022-07-27T01:14:41.499Z,98381.81
2022-07-27T01:17:08.065Z,98372.91
2022-07-27T01:19:35.484Z,98314.13
2022-07-27T01:22:05.806Z,98382.66
2022-07-27T01:24:33.389Z,98383.09
2022-07-27T01:27:02.009Z,98425.38
2022-07-27T01:29:30.211Z,98425.31
2022-07-27T01:31:57.361Z,98420.19
2022-07-27T01:34:25.340Z,98324.75
2022-07-27T01:36:52.026Z,98352.75
2022-07-27T01:39:19.275Z,98409.53
2022-07-27T01:41:47.192Z,98349.19
2022-07-27T01:44:14.412Z,98375.72
2022-07-27T01:46:41.038Z,98389.09
2022-07-27T01:49:08.360Z,98356.03
2022-07-27T01:51:35.270Z,98362.53
2022-07-27T01:54:01.986Z,98404.41
2022-07-27T01:56:28.675Z,98382.13
2022-07-27T01:58:55.466Z,98324.28
2022-07-27T02:01:22.231Z,98359.06
2022-07-27T02:03:49.124Z,98372.91
2022-07-27T02:06:15.994Z,98338.53
2022-07-27T02:08:42.732Z,98377.91
2022-07-27T02:11:09.643Z,98379.09
2022-07-27T02:13:36.374Z,98380.72
2022-07-27T02:16:03.364Z,98384.25
2022-07-27T02:18:36.007Z,98356.34
2022-07-27T02:21:04.286Z,98364.13
2022-07-27T02:23:30.901Z,98327.22
2022-07-27T02:25:58.003Z,98367.00
2022-07-27T02:28:24.651Z,98351.09
2022-07-27T02:30:51.386Z,98353.16
2022-07-27T02:33:18.125Z,98344.81
2022-07-27T02:35:44.856Z,98355.44
2022-07-27T02:38:11.429Z,98382.81
2022-07-27T02:40:38.491Z,98327.53
2022-07-27T02:43:05.264Z,98358.09
2022-07-27T02:45:31.914Z,98325.38
2022-07-27T02:47:58.656Z,98336.16
2022-07-27T02:50:25.483Z,98334.97
2022-07-27T02:52:52.067Z,98417.25
2022-07-27T02:55:18.767Z,98395.50
2022-07-27T02:57:45.448Z,98417.81
2022-07-27T03:00:14.734Z,98407.97
2022-07-27T03:02:42.146Z,98418.63
2022-07-27T03:05:10.708Z,98402.63
2022-07-27T03:07:37.298Z,98379.84
2022-07-27T03:10:04.400Z,98318.91
2022-07-27T03:12:31.026Z,98370.03
2022-07-27T03:14:57.756Z,98351.97
2022-07-27T03:17:24.431Z,98378.56
2022-07-27T03:19:51.051Z,98379.31
2022-07-27T03:22:17.643Z,98389.28
2022-07-27T03:24:44.691Z,98338.25
2022-07-27T03:27:11.291Z,98370.47
2022-07-27T03:29:37.975Z,98351.09
2022-07-27T03:32:04.837Z,98357.59
2022-07-27T03:34:31.585Z,98393.06
2022-07-27T03:36:58.143Z,98364.13
2022-07-27T03:39:24.919Z,98351.19
2022-07-27T03:42:01.172Z,98350.78
2022-07-27T03:44:51.239Z,98357.94
2022-07-27T03:47:18.563Z,98372.06
2022-07-27T03:49:45.198Z,98361.88
2022-07-27T03:52:17.270Z,98369.47
2022-07-27T03:54:44.522Z,98353.28
2022-07-27T03:57:11.159Z,98424.28
2022-07-27T03:59:38.099Z,98389.88
2022-07-27T04:02:06.460Z,98268.28
2022-07-27T04:04:33.362Z,98385.66
2022-07-27T04:07:00.089Z,98409.06
2022-07-27T04:09:26.742Z,98344.94
2022-07-27T04:11:55.740Z,98361.06
2022-07-27T04:14:22.658Z,98414.16
2022-07-27T04:16:49.353Z,98361.59
2022-07-27T04:19:16.456Z,98332.13
2022-07-27T04:21:43.531Z,98376.59
2022-07-27T04:24:10.307Z,98435.22
2022-07-27T04:26:36.946Z,98341.91
2022-07-27T04:29:04.250Z,98366.75
2022-07-27T04:31:31.253Z,98442.09
2022-07-27T04:33:57.884Z,98371.09
2022-07-27T04:36:24.496Z,98323.56
2022-07-27T04:38:51.263Z,98442.69
2022-07-27T04:41:17.809Z,98359.50
2022-07-27T04:43:44.560Z,98353.66
2022-07-27T04:46:15.124Z,98383.00
2022-07-27T04:48:42.257Z,98348.66
2022-07-27T04:51:18.209Z,98391.38
2022-07-27T04:53:53.502Z,98395.19
2022-07-27T04:56:26.356Z,98441.88
2022-07-27T04:58:53.271Z,98315.78
2022-07-27T05:01:19.963Z,98307.84
2022-07-27T05:03:46.721Z,98444.03
2022-07-27T05:06:13.716Z,98426.25
2022-07-27T05:08:40.403Z,98311.06
2022-07-27T05:11:07.114Z,98356.31
2022-07-27T05:13:33.829Z,98466.06
2022-07-27T05:16:00.486Z,98464.78
2022-07-27T05:18:27.442Z,98406.00
2022-07-27T05:20:54.323Z,98424.31
2022-07-27T05:23:21.015Z,98409.41
2022-07-27T05:25:47.945Z,98466.34
2022-07-27T05:28:14.706Z,98364.25
2022-07-27T05:30:41.885Z,98446.28
2022-07-27T05:33:08.859Z,98441.25
2022-07-27T05:35:35.767Z,98392.44
2022-07-27T05:38:02.426Z,98353.19
2022-07-27T05:40:29.380Z,98429.34
2022-07-27T05:42:56.302Z,98432.59
2022-07-27T05:45:23.372Z,98381.78
2022-07-27T05:47:50.090Z,98478.75
2022-07-27T05:50:18.007Z,98493.91
2022-07-27T05:52:45.522Z,98461.56
2022-07-27T05:55:12.806Z,98481.91
2022-07-27T05:57:40.798Z,98405.94
2022-07-27T06:00:09.136Z,98414.81
2022-07-27T06:02:39.655Z,98479.59
2022-07-27T06:05:11.927Z,98497.75
2022-07-27T06:07:44.679Z,98449.91
2022-07-27T06:10:17.167Z,98389.22
2022-07-27T06:12:46.349Z,98513.06
2022-07-27T06:15:14.583Z,98423.44
2022-07-27T06:17:41.403Z,98527.84
2022-07-27T06:20:09.489Z,98443.78
2022-07-27T06:22:58.174Z,98524.38
2022-07-27T06:25:34.151Z,98480.09
2022-07-27T06:28:03.979Z,98381.44
2022-07-27T06:30:30.765Z,98451.53
2022-07-27T06:32:58.077Z,98431.09
2022-07-27T06:35:26.541Z,98506.28
2022-07-27T06:37:54.156Z,98532.97
2022-07-27T06:40:21.347Z,98418.78
2022-07-27T06:42:48.391Z,98404.09
2022-07-27T06:45:15.280Z,98530.31
2022-07-27T06:47:49.045Z,98409.91
2022-07-27T06:50:20.815Z,98482.69
2022-07-27T06:52:48.336Z,98541.06
2022-07-27T06:55:15.238Z,98507.84
2022-07-27T06:57:42.051Z,98540.00
2022-07-27T07:00:09.455Z,98479.97
2022-07-27T07:02:36.215Z,98468.47
2022-07-27T07:05:03.725Z,98523.47
2022-07-27T07:07:30.541Z,98506.50
2022-07-27T07:09:57.674Z,98531.00
2022-07-27T07:12:24.982Z,98528.16
2022-07-27T07:14:52.301Z,98550.47
2022-07-27T07:17:19.050Z,98547.66
2022-07-27T07:19:46.940Z,98542.53
2022-07-27T07:22:14.616Z,98464.78
2022-07-27T07:24:41.804Z,98492.03
2022-07-27T07:27:08.550Z,98515.09
2022-07-27T07:29:35.293Z,98508.16
2022-07-27T07:32:02.291Z,98510.97
2022-07-27T07:34:29.728Z,98499.88
2022-07-27T07:36:56.657Z,98392.41
2022-07-27T07:39:27.833Z,98468.69
2022-07-27T07:41:57.723Z,98531.34
2022-07-27T07:44:24.351Z,98508.25
2022-07-27T07:46:51.152Z,98443.28
2022-07-27T07:49:18.775Z,98526.44
2022-07-27T07:52:05.140Z,98552.81
2022-07-27T07:54:31.798Z,98510.78
2022-07-27T07:56:58.475Z,98512.00
2022-07-27T07:59:25.303Z,98514.13
2022-07-27T08:01:52.217Z,98478.72
2022-07-27T08:04:18.989Z,98425.31
2022-07-27T08:06:45.807Z,98478.50
2022-07-27T08:09:12.772Z,98484.91
2022-07-27T08:11:39.939Z,98494.59
2022-07-27T08:14:06.503Z,98485.84
2022-07-27T08:16:33.736Z,98484.00
2022-07-27T08:19:00.411Z,98481.91
2022-07-27T08:21:27.262Z,98475.53
2022-07-27T08:23:58.802Z,98468.13
2022-07-27T08:26:28.026Z,98441.69
2022-07-27T08:28:54.611Z,98508.94
2022-07-27T08:31:26.427Z,98499.50
2022-07-27T08:34:08.685Z,98455.38
2022-07-27T08:36:35.275Z,98467.66
2022-07-27T08:39:02.040Z,98455.78
2022-07-27T08:41:30.078Z,98488.59
2022-07-27T08:43:59.618Z,98498.16
2022-07-27T08:46:26.880Z,98448.94
2022-07-27T08:48:55.597Z,98474.94
2022-07-27T08:51:25.372Z,98552.06
2022-07-27T08:53:53.981Z,98545.69
2022-07-27T08:56:21.720Z,98502.22
2022-07-27T08:58:48.674Z,98545.41
2022-07-27T09:01:15.413Z,98428.41
2022-07-27T09:03:42.146Z,98474.41
2022-07-27T09:06:08.845Z,98486.38
2022-07-27T09:08:35.549Z,98461.94
2022-07-27T09:11:13.902Z,98437.13
2022-07-27T09:13:40.750Z,98411.13
2022-07-27T09:16:18.240Z,98414.00
2022-07-27T09:18:45.774Z,98542.59
2022-07-27T09:21:17.243Z,98538.69
2022-07-27T09:23:50.814Z,98532.66
2022-07-27T09:26:35.886Z,98535.81
2022-07-27T09:29:06.096Z,98452.75
2022-07-27T09:31:41.304Z,98444.44
2022-07-27T09:34:08.432Z,98478.97
2022-07-27T09:36:53.851Z,98535.16
2022-07-27T09:39:22.259Z,98452.31
2022-07-27T09:41:55.594Z,98416.47
2022-07-27T09:44:43.489Z,98472.47
2022-07-27T09:47:23.492Z,98463.94
2022-07-27T09:49:50.183Z,98455.38
2022-07-27T09:52:23.875Z,98459.88
2022-07-27T09:54:51.606Z,98415.28
2022-07-27T09:57:18.321Z,98480.44
2022-07-27T09:59:45.828Z,98457.97
2022-07-27T10:02:13.922Z,98529.09
2022-07-27T10:04:41.057Z,98536.22
2022-07-27T10:07:12.660Z,98491.06
2022-07-27T10:09:40.954Z,98532.19
2022-07-27T10:12:08.359Z,98496.25
2022-07-27T10:14:35.016Z,98448.63
2022-07-27T10:17:02.594Z,98462.97
2022-07-27T10:19:44.056Z,98475.75
2022-07-27T10:22:10.807Z,98470.63
2022-07-27T10:24:37.535Z,98436.84
2022-07-27T10:27:28.739Z,98458.38
2022-07-27T10:29:57.238Z,98538.53
2022-07-27T10:32:25.901Z,98532.38
2022-07-27T10:34:53.008Z,98467.78
2022-07-27T10:37:27.901Z,98491.81
2022-07-27T10:39:55.968Z,98522.94
2022-07-27T10:42:28.674Z,98496.50
2022-07-27T10:44:56.794Z,98343.59
2022-07-27T10:47:39.091Z,98536.44
2022-07-27T10:50:17.821Z,98535.00
2022-07-27T10:52:47.214Z,98514.22
2022-07-27T10:55:32.548Z,98540.31
2022-07-27T10:58:14.450Z,98541.34
2022-07-27T11:00:54.811Z,98535.84
2022-07-27T11:03:24.369Z,98416.06
2022-07-27T11:06:04.643Z,98497.88
2022-07-27T11:08:46.443Z,98455.59
2022-07-27T11:11:17.007Z,98456.34
2022-07-27T11:13:43.681Z,98478.56
2022-07-27T11:16:23.790Z,98542.69
2022-07-27T11:19:05.033Z,98461.19
2022-07-27T11:21:34.041Z,98459.06
2022-07-27T11:24:18.965Z,98486.50
2022-07-27T11:26:51.771Z,98542.13
2022-07-27T11:29:22.949Z,98487.75
2022-07-27T11:31:56.090Z,98478.78
2022-07-27T11:34:31.263Z,98501.13
2022-07-27T11:36:59.152Z,98487.66
2022-07-27T11:42:20.803Z,98464.72
2022-07-27T11:44:48.933Z,98493.56
2022-07-27T11:47:21.962Z,98527.84
2022-07-27T11:49:48.796Z,98478.53
2022-07-27T11:52:17.720Z,98454.38
2022-07-27T11:54:51.252Z,98520.88
2022-07-27T11:57:18.192Z,98502.19
2022-07-27T11:59:45.612Z,98500.56
2022-07-27T12:02:15.808Z,98502.72
2022-07-27T12:04:45.203Z,98443.19
2022-07-27T12:07:19.990Z,98521.84
2022-07-27T12:09:51.537Z,98496.41
2022-07-27T12:12:25.993Z,98527.25
2022-07-27T12:15:44.810Z,98502.56
2022-07-27T12:18:01.430Z,98396.81
2022-07-27T12:20:35.720Z,98450.75
2022-07-27T12:23:07.650Z,98518.44
2022-07-27T12:25:34.593Z,98467.78
2022-07-27T12:28:05.095Z,98441.97
2022-07-27T12:30:45.836Z,98513.25
2022-07-27T12:33:31.550Z,98520.75
2022-07-27T12:36:02.452Z,98419.63
2022-07-27T12:38:42.686Z,98519.06
2022-07-27T12:41:09.688Z,98470.38
2022-07-27T12:43:36.630Z,98466.13
2022-07-27T12:46:13.952Z,98447.19
2022-07-27T12:48:42.406Z,98497.88
2022-07-27T12:51:10.508Z,98498.09
2022-07-27T12:53:38.229Z,98446.44
2022-07-27T12:56:07.647Z,98482.28
2022-07-27T12:58:34.923Z,98418.03
2022-07-27T13:01:01.816Z,98433.31
2022-07-27T13:03:28.725Z,98408.16
2022-07-27T13:05:55.556Z,98468.78
2022-07-27T13:08:22.368Z,98480.84
2022-07-27T13:10:49.261Z,98457.00
2022-07-27T13:13:15.872Z,98434.00
2022-07-27T13:15:42.556Z,98471.16
2022-07-27T13:18:09.192Z,98491.81
2022-07-27T13:20:36.322Z,98500.22
2022-07-27T13:23:03.198Z,98454.13
2022-07-27T13:25:30.063Z,98468.00
2022-07-27T13:27:56.684Z,98476.31
2022-07-27T13:30:24.554Z,98412.16
2022-07-27T13:32:53.265Z,98468.25
2022-07-27T13:35:19.836Z,98423.38
2022-07-27T13:37:46.530Z,98456.50
2022-07-27T13:40:14.087Z,98453.09
2022-07-27T13:42:40.797Z,98471.78
2022-07-27T13:45:10.515Z,98415.25
2022-07-27T13:47:41.905Z,98495.25
2022-07-27T13:50:17.417Z,98492.63
2022-07-27T13:52:46.583Z,98450.00
2022-07-27T13:55:14.768Z,98455.00
2022-07-27T13:57:41.621Z,98422.41
2022-07-27T14:00:08.820Z,98475.50
2022-07-27T14:02:35.871Z,98460.72
2022-07-27T14:05:05.853Z,98498.72
2022-07-27T14:07:32.605Z,98449.69
2022-07-27T14:09:59.196Z,98467.78
2022-07-27T14:12:25.854Z,98461.16
2022-07-27T14:14:52.411Z,98438.34
2022-07-27T14:17:19.127Z,98478.50
2022-07-27T14:19:45.784Z,98495.72
2022-07-27T14:22:12.402Z,98450.59
2022-07-27T14:24:39.420Z,98436.09
2022-07-27T14:27:06.904Z,98446.75
2022-07-27T14:29:34.193Z,98458.53
2022-07-27T14:32:01.220Z,98441.38
2022-07-27T14:34:27.897Z,98437.63
2022-07-27T14:36:54.498Z,98475.84
2022-07-27T14:39:21.122Z,98426.28
2022-07-27T14:41:47.774Z,98450.19
2022-07-27T14:44:14.306Z,98434.75
2022-07-27T14:46:46.297Z,98442.59
2022-07-27T14:49:13.252Z,98448.97
2022-07-27T14:51:39.975Z,98429.59
2022-07-27T14:54:06.699Z,98382.38
2022-07-27T14:56:33.371Z,98414.81
2022-07-27T14:58:59.922Z,98407.53
2022-07-27T15:01:26.881Z,98432.63
2022-07-27T15:03:53.465Z,98455.22
2022-07-27T15:06:20.103Z,98398.06
2022-07-27T15:08:46.848Z,98418.19
2022-07-27T15:11:13.526Z,98474.31
2022-07-27T15:13:40.166Z,98415.88
2022-07-27T15:16:07.103Z,98448.69
2022-07-27T15:18:38.278Z,98333.53
2022-07-27T15:21:13.527Z,98425.06
2022-07-27T15:23:42.942Z,98418.41
2022-07-27T15:26:09.549Z,98413.78
2022-07-27T15:28:36.151Z,98425.56
2022-07-27T15:31:02.859Z,98418.59
2022-07-27T15:33:29.681Z,98421.63
2022-07-27T15:35:57.848Z,98462.16
2022-07-27T15:38:24.522Z,98382.00
2022-07-27T15:40:51.073Z,98402.34
2022-07-27T15:43:18.425Z,98420.34
2022-07-27T15:45:50.821Z,98411.28
2022-07-27T15:48:19.213Z,98426.94
2022-07-27T15:50:49.620Z,98422.75
2022-07-27T15:53:17.636Z,98434.59
2022-07-27T15:55:44.733Z,98396.13
2022-07-27T15:58:11.546Z,98409.09
2022-07-27T16:00:41.171Z,98414.59
2022-07-27T16:03:10.195Z,98349.59
2022-07-27T16:05:38.435Z,98402.41
2022-07-27T16:08:06.636Z,98420.16
2022-07-27T16:10:33.209Z,98405.19
2022-07-27T16:12:59.880Z,98351.50
2022-07-27T16:15:26.661Z,98380.38
2022-07-27T16:17:53.273Z,98421.38
2022-07-27T16:20:19.852Z,98334.13
2022-07-27T16:22:49.097Z,98370.41
2022-07-27T16:25:15.701Z,98363.88
2022-07-27T16:27:42.379Z,98388.16
2022-07-27T16:30:09.264Z,98343.31
2022-07-27T16:32:37.536Z,98404.75
2022-07-27T16:35:09.043Z,98435.28
2022-07-27T16:37:37.323Z,98373.88
2022-07-27T16:40:04.641Z,98356.34
2022-07-27T16:42:34.974Z,98410.91
2022-07-27T16:45:04.910Z,98343.88
2022-07-27T16:47:31.553Z,98414.53
2022-07-27T16:49:58.141Z,98386.50
2022-07-27T16:52:24.703Z,98405.94
2022-07-27T16:54:51.347Z,98386.66
2022-07-27T16:57:17.898Z,98384.53
2022-07-27T16:59:47.700Z,98419.06
2022-07-27T17:02:14.277Z,98397.78
2022-07-27T17:04:41.191Z,98417.97
2022-07-27T17:07:12.305Z,98400.88
2022-07-27T17:09:39.851Z,98417.06
2022-07-27T17:12:06.685Z,98392.50
2022-07-27T17:14:33.570Z,98355.84
2022-07-27T17:17:00.128Z,98335.47
2022-07-27T17:19:26.898Z,98430.34
2022-07-27T17:21:53.514Z,98384.31
2022-07-27T17:24:20.251Z,98382.63
2022-07-27T17:26:46.835Z,98411.97
2022-07-27T17:29:14.049Z,98411.72
2022-07-27T17:31:40.945Z,98439.09
2022-07-27T17:34:07.814Z,98411.88
2022-07-27T17:36:34.480Z,98425.88
2022-07-27T17:39:01.090Z,98398.56
2022-07-27T17:41:27.758Z,98396.06
2022-07-27T17:43:54.706Z,98418.25
2022-07-27T17:46:22.994Z,98359.72
2022-07-27T17:48:50.845Z,98337.06
2022-07-27T17:51:17.892Z,98391.13
2022-07-27T17:53:45.201Z,98446.59
2022-07-27T17:56:12.447Z,98378.63
2022-07-27T17:58:39.585Z,98372.69
2022-07-27T18:01:06.553Z,98419.88
2022-07-27T18:03:33.495Z,98412.88
2022-07-27T18:06:00.139Z,98361.94
2022-07-27T18:08:27.067Z,98396.25
2022-07-27T18:10:53.720Z,98404.09
2022-07-27T18:13:20.469Z,98365.16
2022-07-27T18:15:47.317Z,98379.34
2022-07-27T18:18:25.219Z,98314.56
2022-07-27T18:20:56.099Z,98372.13
2022-07-27T18:23:24.746Z,98391.75
2022-07-27T18:25:51.412Z,98358.69
2022-07-27T18:28:18.186Z,98382.78
2022-07-27T18:30:49.802Z,98427.91
2022-07-27T18:33:17.409Z,98410.41
2022-07-27T18:35:45.912Z,98430.84
2022-07-27T18:38:13.430Z,98305.81
2022-07-27T18:40:42.647Z,98432.00
2022-07-27T18:43:10.063Z,98377.19
2022-07-27T18:45:37.526Z,98378.16
2022-07-27T18:48:04.716Z,98401.28
2022-07-27T18:50:35.658Z,98396.00
2022-07-27T18:53:05.650Z,98454.72
2022-07-27T18:55:32.435Z,98361.00
2022-07-27T18:57:59.049Z,98391.03
2022-07-27T19:00:27.653Z,98456.97
2022-07-27T19:02:56.719Z,98386.03
2022-07-27T19:05:32.431Z,98443.75
2022-07-27T19:08:08.812Z,98299.53
2022-07-27T19:10:36.726Z,98358.19
2022-07-27T19:13:03.566Z,98393.13
2022-07-27T19:15:30.509Z,98404.34
2022-07-27T19:18:00.291Z,98395.03
2022-07-27T19:20:26.959Z,98384.56
2022-07-27T19:22:53.742Z,98476.78
2022-07-27T19:25:26.297Z,98477.41
2022-07-27T19:27:53.208Z,98442.88
2022-07-27T19:30:19.800Z,98409.69
2022-07-27T19:32:46.591Z,98503.75
2022-07-27T19:35:15.497Z,98484.84
2022-07-27T19:37:42.213Z,98501.31
2022-07-27T19:40:41.655Z,98476.25
2022-07-27T19:42:56.628Z,98458.25
2022-07-27T19:45:23.271Z,98451.53
2022-07-27T19:47:49.928Z,98473.56
2022-07-27T19:50:16.888Z,98467.66
2022-07-27T19:52:43.657Z,98475.31
2022-07-27T19:55:10.218Z,98490.31
2022-07-27T19:57:37.050Z,98499.06
2022-07-27T20:00:05.015Z,98525.19
2022-07-27T20:02:31.882Z,98470.03
2022-07-27T20:04:58.819Z,98543.25
2022-07-27T20:07:25.680Z,98417.53
2022-07-27T20:09:54.544Z,98520.56
2022-07-27T20:12:31.088Z,98475.22
2022-07-27T20:15:00.856Z,98395.00
2022-07-27T20:17:28.223Z,98470.50
2022-07-27T20:19:56.855Z,98527.16
2022-07-27T20:22:23.545Z,98484.16
2022-07-27T20:24:54.943Z,98529.53
2022-07-27T20:27:22.046Z,98470.94
2022-07-27T20:29:48.614Z,98421.06
2022-07-27T20:32:18.326Z,98495.38
2022-07-27T20:34:46.222Z,98496.53
2022-07-27T20:37:17.726Z,98523.06
2022-07-27T20:39:44.422Z,98455.25
2022-07-27T20:42:11.127Z,98517.50
2022-07-27T20:44:46.989Z,98514.09
2022-07-27T20:47:13.940Z,98468.31
2022-07-27T20:49:48.006Z,98490.59
2022-07-27T20:52:17.188Z,98432.56
2022-07-27T20:54:46.768Z,98464.97
2022-07-27T20:57:20.807Z,98469.06
2022-07-27T20:59:47.431Z,98506.44
2022-07-27T21:02:14.028Z,98471.72
2022-07-27T21:04:43.994Z,98465.19
2022-07-27T21:07:18.207Z,98547.94
2022-07-27T21:09:44.927Z,98510.63
2022-07-27T21:12:11.721Z,98483.66
2022-07-27T21:14:38.425Z,98581.59
2022-07-27T21:17:10.684Z,98509.22
2022-07-27T21:19:37.834Z,98502.69
2022-07-27T21:22:06.100Z,98584.09
2022-07-27T21:24:32.724Z,98559.41
2022-07-27T21:27:04.385Z,98476.34
2022-07-27T21:29:32.091Z,98604.75
2022-07-27T21:31:58.895Z,98556.91
2022-07-27T21:34:26.173Z,98578.13
2022-07-27T21:36:52.868Z,98557.31
2022-07-27T21:39:20.480Z,98608.22
2022-07-27T21:41:47.117Z,98583.44
2022-07-27T21:44:30.023Z,98548.53
2022-07-27T21:47:13.439Z,98542.97
2022-07-27T21:49:42.473Z,97927.28
2022-07-27T21:52:13.243Z,98293.03
2022-07-27T21:54:40.914Z,98142.53
2022-07-27T21:57:10.189Z,98249.81
2022-07-27T21:59:41.355Z,98506.28
2022-07-27T22:02:16.220Z,98619.41
2022-07-27T22:04:45.462Z,98466.25
2022-07-27T22:07:16.782Z,98510.72
2022-07-27T22:09:52.035Z,98437.41
2022-07-27T22:12:24.862Z,98520.84
2022-07-27T22:15:03.174Z,98543.13
2022-07-27T22:17:50.106Z,98483.34
2022-07-27T22:20:23.269Z,98578.84
2022-07-27T22:22:54.816Z,98227.59
2022-07-27T22:25:24.054Z,98450.50
2022-07-27T22:27:50.737Z,98448.69
2022-07-27T22:30:17.426Z,98541.13
2022-07-27T22:32:44.347Z,98563.16
2022-07-27T22:35:11.114Z,98552.25
2022-07-27T22:37:37.657Z,98585.16
2022-07-27T22:40:06.477Z,98516.25
2022-07-27T22:42:33.047Z,98537.03
2022-07-27T22:44:59.712Z,98607.63
2022-07-27T22:47:26.543Z,98607.25
2022-07-27T22:49:53.219Z,98576.41
2022-07-27T22:52:19.832Z,98514.31
2022-07-27T22:54:46.859Z,98576.38
2022-07-27T22:57:13.429Z,98519.91
2022-07-27T22:59:41.277Z,98589.72
2022-07-27T23:02:08.208Z,98544.44
2022-07-27T23:04:34.933Z,98559.19
2022-07-27T23:07:01.579Z,98520.63
2022-07-27T23:09:28.436Z,98607.47
2022-07-27T23:11:55.267Z,98602.97
2022-07-27T23:14:21.905Z,98612.41
2022-07-27T23:16:48.578Z,98638.09
2022-07-27T23:19:15.312Z,98498.72
2022-07-27T23:21:42.422Z,98591.75
2022-07-27T23:24:10.964Z,98543.34
2022-07-27T23:26:38.460Z,98501.31
2022-07-27T23:29:05.086Z,98548.03
2022-07-27T23:31:31.799Z,98526.97
2022-07-27T23:33:58.548Z,98496.06
2022-07-27T23:36:25.098Z,98542.97
2022-07-27T23:38:51.880Z,98620.50
2022-07-27T23:41:18.440Z,98562.66
2022-07-27T23:43:45.067Z,98547.91
2022-07-27T23:46:12.074Z,98558.53
2022-07-27T23:48:38.979Z,98605.38
2022-07-27T23:51:05.798Z,98573.81
2022-07-27T23:53:32.575Z,98544.53
2022-07-27T23:55:59.112Z,98544.19
2022-07-27T23:58:25.667Z,98575.94
